sensor_id;sensor_type;location;lat;lon;timestamp;temperature;humidity
6724;DHT22;3399;52.530;13.304;2024-03-23T00:55:52;8.70;99.90
6724;DHT22;3399;52.530;13.304;2024-03-23T00:58:18;8.90;99.90
6724;DHT22;3399;52.530;13.304;2024-03-23T01:00:43;8.70;99.90
6724;DHT22;3399;52.530;13.304;2024-03-23T01:03:09;8.50;99.90
6724;DHT22;3399;52.530;13.304;2024-03-23T01:05:34;8.30;99.90
6724;DHT22;3399;52.530;13.304;2024-03-23T01:08:00;8.20;99.90
6724;DHT22;3399;52.530;13.304;2024-03-23T01:10:25;8.20;99.90
6724;DHT22;3399;52.530;13.304;2024-03-23T01:12:51;8.30;99.90
6724;DHT22;3399;52.530;13.304;2024-03-23T01:15:16;8.40;99.90
6724;DHT22;3399;52.530;13.304;2024-03-23T01:17:41;8.20;99.90
6724;DHT22;3399;52.530;13.304;2024-03-23T01:20:07;8.10;99.90
6724;DHT22;3399;52.530;13.304;2024-03-23T01:22:33;8.10;99.90
6724;DHT22;3399;52.530;13.304;2024-03-23T01:24:58;8.00;99.90
6724;DHT22;3399;52.530;13.304;2024-03-23T01:27:24;8.00;99.90
6724;DHT22;3399;52.530;13.304;2024-03-23T01:29:50;7.90;99.90
6724;DHT22;3399;52.530;13.304;2024-03-23T01:32:18;8.00;99.90
6724;DHT22;3399;52.530;13.304;2024-03-23T01:34:43;8.10;99.90
6724;DHT22;3399;52.530;13.304;2024-03-23T01:37:09;8.40;99.90
6724;DHT22;3399;52.530;13.304;2024-03-23T01:39:34;8.70;99.90
6724;DHT22;3399;52.530;13.304;2024-03-23T01:42:00;8.70;99.90
6724;DHT22;3399;52.530;13.304;2024-03-23T01:44:25;8.90;99.90
6724;DHT22;3399;52.530;13.304;2024-03-23T01:46:51;8.90;99.90
6724;DHT22;3399;52.530;13.304;2024-03-23T01:49:16;9.00;99.90
6724;DHT22;3399;52.530;13.304;2024-03-23T01:51:42;8.90;99.90
6724;DHT22;3399;52.530;13.304;2024-03-23T01:54:09;9.00;99.90
6724;DHT22;3399;52.530;13.304;2024-03-23T01:56:35;8.90;99.90
6724;DHT22;3399;52.530;13.304;2024-03-23T01:59:04;8.80;99.90
6724;DHT22;3399;52.530;13.304;2024-03-23T02:01:30;8.60;99.90
6724;DHT22;3399;52.530;13.304;2024-03-23T02:03:56;8.50;99.90
6724;DHT22;3399;52.530;13.304;2024-03-23T02:06:22;8.40;99.90
6724;DHT22;3399;52.530;13.304;2024-03-23T02:08:49;8.30;99.90
6724;DHT22;3399;52.530;13.304;2024-03-23T02:11:14;8.20;99.90
6724;DHT22;3399;52.530;13.304;2024-03-23T02:13:40;8.30;99.90
6724;DHT22;3399;52.530;13.304;2024-03-23T02:16:06;8.50;99.90
6724;DHT22;3399;52.530;13.304;2024-03-23T02:18:35;8.60;99.90
6724;DHT22;3399;52.530;13.304;2024-03-23T02:21:00;8.80;99.90
6724;DHT22;3399;52.530;13.304;2024-03-23T02:23:26;8.90;99.90
6724;DHT22;3399;52.530;13.304;2024-03-23T02:25:51;8.90;99.90
6724;DHT22;3399;52.530;13.304;2024-03-23T02:28:19;8.90;99.90
6724;DHT22;3399;52.530;13.304;2024-03-23T02:30:44;8.90;99.90
6724;DHT22;3399;52.530;13.304;2024-03-23T02:33:10;8.90;99.90
6724;DHT22;3399;52.530;13.304;2024-03-23T02:35:35;8.90;99.90
6724;DHT22;3399;52.530;13.304;2024-03-23T02:38:01;8.80;99.90
6724;DHT22;3399;52.530;13.304;2024-03-23T02:40:27;8.80;99.90
6724;DHT22;3399;52.530;13.304;2024-03-23T02:42:53;8.90;99.90
6724;DHT22;3399;52.530;13.304;2024-03-23T02:45:18;8.80;99.90
6724;DHT22;3399;52.530;13.304;2024-03-23T02:47:44;8.80;99.90
6724;DHT22;3399;52.530;13.304;2024-03-23T02:50:10;8.80;99.90
6724;DHT22;3399;52.530;13.304;2024-03-23T02:52:36;8.90;99.90
6724;DHT22;3399;52.530;13.304;2024-03-23T02:55:02;8.90;99.90
6724;DHT22;3399;52.530;13.304;2024-03-23T02:57:28;8.90;99.90
6724;DHT22;3399;52.530;13.304;2024-03-23T02:59:53;8.90;99.90
6724;DHT22;3399;52.530;13.304;2024-03-23T03:02:20;8.80;99.90
6724;DHT22;3399;52.530;13.304;2024-03-23T03:04:46;8.30;99.90
6724;DHT22;3399;52.530;13.304;2024-03-23T03:07:11;8.00;99.90
6724;DHT22;3399;52.530;13.304;2024-03-23T03:09:36;8.00;99.90
6724;DHT22;3399;52.530;13.304;2024-03-23T03:12:07;7.90;99.90
6724;DHT22;3399;52.530;13.304;2024-03-23T03:14:33;7.80;99.90
6724;DHT22;3399;52.530;13.304;2024-03-23T03:16:59;8.00;99.90
6724;DHT22;3399;52.530;13.304;2024-03-23T03:19:24;7.90;99.90
6724;DHT22;3399;52.530;13.304;2024-03-23T03:21:49;7.70;99.90
6724;DHT22;3399;52.530;13.304;2024-03-23T03:24:15;7.70;99.90
6724;DHT22;3399;52.530;13.304;2024-03-23T03:26:41;7.80;99.90
6724;DHT22;3399;52.530;13.304;2024-03-23T03:29:06;7.60;99.90
6724;DHT22;3399;52.530;13.304;2024-03-23T03:31:32;7.50;99.90
6724;DHT22;3399;52.530;13.304;2024-03-23T03:33:57;7.50;99.90
6724;DHT22;3399;52.530;13.304;2024-03-23T03:36:23;7.50;99.90
6724;DHT22;3399;52.530;13.304;2024-03-23T03:38:48;7.40;99.90
6724;DHT22;3399;52.530;13.304;2024-03-23T03:41:14;7.40;99.90
6724;DHT22;3399;52.530;13.304;2024-03-23T03:43:39;7.30;99.90
6724;DHT22;3399;52.530;13.304;2024-03-23T03:46:05;7.30;99.90
6724;DHT22;3399;52.530;13.304;2024-03-23T03:48:30;7.20;99.90
6724;DHT22;3399;52.530;13.304;2024-03-23T03:50:55;7.20;99.90
6724;DHT22;3399;52.530;13.304;2024-03-23T03:53:21;7.30;99.90
6724;DHT22;3399;52.530;13.304;2024-03-23T03:55:47;7.20;99.90
6724;DHT22;3399;52.530;13.304;2024-03-23T03:58:12;7.20;99.90
6724;DHT22;3399;52.530;13.304;2024-03-23T04:00:38;7.20;99.90
6724;DHT22;3399;52.530;13.304;2024-03-23T04:03:03;7.20;99.90
6724;DHT22;3399;52.530;13.304;2024-03-23T04:05:29;7.20;99.90
6724;DHT22;3399;52.530;13.304;2024-03-23T04:07:55;7.20;99.90
6724;DHT22;3399;52.530;13.304;2024-03-23T04:10:21;7.20;99.90
6724;DHT22;3399;52.530;13.304;2024-03-23T04:12:47;7.10;99.90
6724;DHT22;3399;52.530;13.304;2024-03-23T04:15:13;7.10;99.90
6724;DHT22;3399;52.530;13.304;2024-03-23T04:17:38;6.90;99.90
6724;DHT22;3399;52.530;13.304;2024-03-23T04:20:04;6.90;99.90
6724;DHT22;3399;52.530;13.304;2024-03-23T04:22:34;6.80;99.90
6724;DHT22;3399;52.530;13.304;2024-03-23T04:25:00;6.80;99.90
6724;DHT22;3399;52.530;13.304;2024-03-23T04:27:32;6.80;99.90
6724;DHT22;3399;52.530;13.304;2024-03-23T04:29:57;6.90;99.90
6724;DHT22;3399;52.530;13.304;2024-03-23T04:32:23;7.10;99.90
6724;DHT22;3399;52.530;13.304;2024-03-23T04:34:48;7.20;99.90
6724;DHT22;3399;52.530;13.304;2024-03-23T04:37:14;7.30;99.90
6724;DHT22;3399;52.530;13.304;2024-03-23T04:39:39;7.50;99.90
6724;DHT22;3399;52.530;13.304;2024-03-23T04:42:05;7.50;99.90
6724;DHT22;3399;52.530;13.304;2024-03-23T04:44:31;7.70;99.90
6724;DHT22;3399;52.530;13.304;2024-03-23T04:46:57;7.80;99.90
6724;DHT22;3399;52.530;13.304;2024-03-23T04:49:23;8.00;99.90
6724;DHT22;3399;52.530;13.304;2024-03-23T04:51:48;8.10;99.90
6724;DHT22;3399;52.530;13.304;2024-03-23T04:54:14;8.20;99.90
6724;DHT22;3399;52.530;13.304;2024-03-23T04:56:40;8.20;99.90
6724;DHT22;3399;52.530;13.304;2024-03-23T04:59:05;8.10;99.90
6724;DHT22;3399;52.530;13.304;2024-03-23T05:01:31;7.70;99.90
6724;DHT22;3399;52.530;13.304;2024-03-23T05:03:57;7.70;99.90
6724;DHT22;3399;52.530;13.304;2024-03-23T05:06:24;7.30;99.90
6724;DHT22;3399;52.530;13.304;2024-03-23T05:08:49;7.10;99.90
6724;DHT22;3399;52.530;13.304;2024-03-23T05:11:15;7.00;99.90
6724;DHT22;3399;52.530;13.304;2024-03-23T05:13:41;7.30;99.90
6724;DHT22;3399;52.530;13.304;2024-03-23T05:16:07;7.30;99.90
6724;DHT22;3399;52.530;13.304;2024-03-23T05:18:32;7.50;99.90
6724;DHT22;3399;52.530;13.304;2024-03-23T05:20:58;7.50;99.90
6724;DHT22;3399;52.530;13.304;2024-03-23T05:23:25;7.50;99.90
6724;DHT22;3399;52.530;13.304;2024-03-23T05:25:50;7.60;99.90
6724;DHT22;3399;52.530;13.304;2024-03-23T05:28:17;7.50;99.90
6724;DHT22;3399;52.530;13.304;2024-03-23T05:30:43;7.30;99.90
6724;DHT22;3399;52.530;13.304;2024-03-23T05:33:08;7.20;99.90
6724;DHT22;3399;52.530;13.304;2024-03-23T05:35:34;7.30;99.90
6724;DHT22;3399;52.530;13.304;2024-03-23T05:37:59;7.40;99.90
6724;DHT22;3399;52.530;13.304;2024-03-23T05:40:28;7.40;99.90
6724;DHT22;3399;52.530;13.304;2024-03-23T05:42:54;7.20;99.90
6724;DHT22;3399;52.530;13.304;2024-03-23T05:45:21;6.90;99.90
6724;DHT22;3399;52.530;13.304;2024-03-23T05:47:48;6.80;99.90
6724;DHT22;3399;52.530;13.304;2024-03-23T05:50:13;6.80;99.90
6724;DHT22;3399;52.530;13.304;2024-03-23T05:52:39;6.90;99.90
6724;DHT22;3399;52.530;13.304;2024-03-23T05:55:05;6.90;99.90
6724;DHT22;3399;52.530;13.304;2024-03-23T05:57:31;6.80;99.90
6724;DHT22;3399;52.530;13.304;2024-03-23T05:59:57;6.50;99.90
6724;DHT22;3399;52.530;13.304;2024-03-23T06:02:23;6.70;99.90
6724;DHT22;3399;52.530;13.304;2024-03-23T06:04:49;6.70;99.90
6724;DHT22;3399;52.530;13.304;2024-03-23T06:07:14;6.80;99.90
6724;DHT22;3399;52.530;13.304;2024-03-23T06:09:41;6.50;99.90
6724;DHT22;3399;52.530;13.304;2024-03-23T06:12:07;6.50;99.90
6724;DHT22;3399;52.530;13.304;2024-03-23T06:14:32;6.50;99.90
6724;DHT22;3399;52.530;13.304;2024-03-23T06:16:58;6.50;99.90
6724;DHT22;3399;52.530;13.304;2024-03-23T06:19:25;6.60;99.90
6724;DHT22;3399;52.530;13.304;2024-03-23T06:21:53;6.50;99.90
6724;DHT22;3399;52.530;13.304;2024-03-23T06:24:20;6.50;99.90
6724;DHT22;3399;52.530;13.304;2024-03-23T06:26:45;6.60;99.90
6724;DHT22;3399;52.530;13.304;2024-03-23T06:29:11;6.80;99.90
6724;DHT22;3399;52.530;13.304;2024-03-23T06:31:36;6.90;99.90
6724;DHT22;3399;52.530;13.304;2024-03-23T06:34:01;7.10;99.90
6724;DHT22;3399;52.530;13.304;2024-03-23T06:36:27;7.00;99.90
6724;DHT22;3399;52.530;13.304;2024-03-23T06:38:52;6.80;99.90
6724;DHT22;3399;52.530;13.304;2024-03-23T06:41:19;7.00;99.90
6724;DHT22;3399;52.530;13.304;2024-03-23T06:43:44;7.00;99.90
6724;DHT22;3399;52.530;13.304;2024-03-23T06:46:09;6.90;99.90
6724;DHT22;3399;52.530;13.304;2024-03-23T06:48:35;7.00;99.90
6724;DHT22;3399;52.530;13.304;2024-03-23T06:51:00;6.90;99.90
6724;DHT22;3399;52.530;13.304;2024-03-23T06:53:26;6.80;99.90
6724;DHT22;3399;52.530;13.304;2024-03-23T06:55:53;6.70;99.90
6724;DHT22;3399;52.530;13.304;2024-03-23T06:58:23;6.90;99.90
6724;DHT22;3399;52.530;13.304;2024-03-23T07:00:49;6.60;99.90
6724;DHT22;3399;52.530;13.304;2024-03-23T07:03:16;6.70;99.90
6724;DHT22;3399;52.530;13.304;2024-03-23T07:05:41;6.60;99.90
6724;DHT22;3399;52.530;13.304;2024-03-23T07:08:07;6.80;99.90
6724;DHT22;3399;52.530;13.304;2024-03-23T07:10:33;6.80;99.90
6724;DHT22;3399;52.530;13.304;2024-03-23T07:12:58;6.70;99.90
6724;DHT22;3399;52.530;13.304;2024-03-23T07:15:24;6.60;99.90
6724;DHT22;3399;52.530;13.304;2024-03-23T07:17:50;6.60;99.90
6724;DHT22;3399;52.530;13.304;2024-03-23T07:20:15;6.50;99.90
6724;DHT22;3399;52.530;13.304;2024-03-23T07:22:41;6.50;99.90
6724;DHT22;3399;52.530;13.304;2024-03-23T07:25:07;6.60;99.90
6724;DHT22;3399;52.530;13.304;2024-03-23T07:27:32;6.60;99.90
6724;DHT22;3399;52.530;13.304;2024-03-23T07:29:59;6.70;99.90
6724;DHT22;3399;52.530;13.304;2024-03-23T07:32:26;6.80;99.90
6724;DHT22;3399;52.530;13.304;2024-03-23T07:34:52;6.90;99.90
6724;DHT22;3399;52.530;13.304;2024-03-23T07:37:17;7.10;99.90
6724;DHT22;3399;52.530;13.304;2024-03-23T07:39:43;7.00;99.90
6724;DHT22;3399;52.530;13.304;2024-03-23T07:42:08;6.90;99.90
6724;DHT22;3399;52.530;13.304;2024-03-23T07:44:34;6.80;99.90
6724;DHT22;3399;52.530;13.304;2024-03-23T07:47:03;6.90;99.90
6724;DHT22;3399;52.530;13.304;2024-03-23T07:49:29;7.00;99.90
6724;DHT22;3399;52.530;13.304;2024-03-23T07:51:55;6.80;99.90
6724;DHT22;3399;52.530;13.304;2024-03-23T07:54:20;6.90;99.90
6724;DHT22;3399;52.530;13.304;2024-03-23T07:56:46;6.80;99.90
6724;DHT22;3399;52.530;13.304;2024-03-23T07:59:11;6.70;99.90
6724;DHT22;3399;52.530;13.304;2024-03-23T08:01:37;6.70;99.90
6724;DHT22;3399;52.530;13.304;2024-03-23T08:04:02;6.70;99.90
6724;DHT22;3399;52.530;13.304;2024-03-23T08:06:28;6.70;99.90
6724;DHT22;3399;52.530;13.304;2024-03-23T08:08:57;6.70;99.90
6724;DHT22;3399;52.530;13.304;2024-03-23T08:11:27;6.70;99.90
6724;DHT22;3399;52.530;13.304;2024-03-23T08:13:53;6.60;99.90
6724;DHT22;3399;52.530;13.304;2024-03-23T08:16:18;6.60;99.90
6724;DHT22;3399;52.530;13.304;2024-03-23T08:18:44;6.60;99.90
6724;DHT22;3399;52.530;13.304;2024-03-23T08:21:10;6.20;99.90
6724;DHT22;3399;52.530;13.304;2024-03-23T08:23:36;6.00;99.90
6724;DHT22;3399;52.530;13.304;2024-03-23T08:26:06;6.00;99.90
6724;DHT22;3399;52.530;13.304;2024-03-23T08:28:32;5.80;99.90
6724;DHT22;3399;52.530;13.304;2024-03-23T08:31:01;5.80;99.90
6724;DHT22;3399;52.530;13.304;2024-03-23T08:33:26;5.70;99.90
6724;DHT22;3399;52.530;13.304;2024-03-23T08:35:56;5.60;99.90
6724;DHT22;3399;52.530;13.304;2024-03-23T08:38:22;5.60;99.90
6724;DHT22;3399;52.530;13.304;2024-03-23T08:40:53;5.40;99.90
6724;DHT22;3399;52.530;13.304;2024-03-23T08:43:22;5.40;99.90
6724;DHT22;3399;52.530;13.304;2024-03-23T08:45:47;5.40;99.90
6724;DHT22;3399;52.530;13.304;2024-03-23T08:48:13;5.40;99.90
6724;DHT22;3399;52.530;13.304;2024-03-23T08:50:39;5.30;99.90
6724;DHT22;3399;52.530;13.304;2024-03-23T08:53:04;5.30;99.90
6724;DHT22;3399;52.530;13.304;2024-03-23T08:55:30;5.20;99.90
6724;DHT22;3399;52.530;13.304;2024-03-23T08:57:55;5.20;99.90
6724;DHT22;3399;52.530;13.304;2024-03-23T09:00:21;5.20;99.90
6724;DHT22;3399;52.530;13.304;2024-03-23T09:02:50;5.10;99.90
6724;DHT22;3399;52.530;13.304;2024-03-23T09:05:15;5.10;99.90
6724;DHT22;3399;52.530;13.304;2024-03-23T09:07:41;5.10;99.90
6724;DHT22;3399;52.530;13.304;2024-03-23T09:10:07;5.10;99.90
6724;DHT22;3399;52.530;13.304;2024-03-23T09:12:33;5.00;99.90
6724;DHT22;3399;52.530;13.304;2024-03-23T09:14:58;5.00;99.90
6724;DHT22;3399;52.530;13.304;2024-03-23T09:17:24;4.90;99.90
6724;DHT22;3399;52.530;13.304;2024-03-23T09:19:49;4.90;99.90
6724;DHT22;3399;52.530;13.304;2024-03-23T09:22:14;4.90;99.90
6724;DHT22;3399;52.530;13.304;2024-03-23T09:24:40;4.90;99.90
6724;DHT22;3399;52.530;13.304;2024-03-23T09:27:06;5.10;99.90
6724;DHT22;3399;52.530;13.304;2024-03-23T09:29:31;5.30;99.90
6724;DHT22;3399;52.530;13.304;2024-03-23T09:31:57;5.20;99.90
6724;DHT22;3399;52.530;13.304;2024-03-23T09:34:22;5.20;99.90
6724;DHT22;3399;52.530;13.304;2024-03-23T09:36:51;5.30;99.90
6724;DHT22;3399;52.530;13.304;2024-03-23T09:39:17;5.20;99.90
6724;DHT22;3399;52.530;13.304;2024-03-23T09:41:42;5.10;99.90
6724;DHT22;3399;52.530;13.304;2024-03-23T09:44:08;4.90;99.90
6724;DHT22;3399;52.530;13.304;2024-03-23T09:46:34;5.00;99.90
6724;DHT22;3399;52.530;13.304;2024-03-23T09:49:02;5.00;99.90
6724;DHT22;3399;52.530;13.304;2024-03-23T09:51:30;4.90;99.90
6724;DHT22;3399;52.530;13.304;2024-03-23T09:53:56;5.00;99.90
6724;DHT22;3399;52.530;13.304;2024-03-23T09:56:22;5.10;99.90
6724;DHT22;3399;52.530;13.304;2024-03-23T09:58:49;5.10;99.90
6724;DHT22;3399;52.530;13.304;2024-03-23T10:01:14;5.20;99.90
6724;DHT22;3399;52.530;13.304;2024-03-23T10:03:44;5.20;99.90
6724;DHT22;3399;52.530;13.304;2024-03-23T10:06:10;5.20;99.90
6724;DHT22;3399;52.530;13.304;2024-03-23T10:08:35;5.20;99.90
6724;DHT22;3399;52.530;13.304;2024-03-23T10:11:13;5.20;99.90
6724;DHT22;3399;52.530;13.304;2024-03-23T10:13:42;5.30;99.90
6724;DHT22;3399;52.530;13.304;2024-03-23T10:16:08;5.20;99.90
6724;DHT22;3399;52.530;13.304;2024-03-23T10:18:37;5.30;99.90
6724;DHT22;3399;52.530;13.304;2024-03-23T10:21:06;5.30;99.90
6724;DHT22;3399;52.530;13.304;2024-03-23T10:23:33;5.30;99.90
6724;DHT22;3399;52.530;13.304;2024-03-23T10:26:18;5.30;99.90
6724;DHT22;3399;52.530;13.304;2024-03-23T10:28:53;5.20;99.90
6724;DHT22;3399;52.530;13.304;2024-03-23T10:31:20;5.20;99.90
6724;DHT22;3399;52.530;13.304;2024-03-23T10:33:47;5.10;99.90
6724;DHT22;3399;52.530;13.304;2024-03-23T10:36:13;5.10;99.90
6724;DHT22;3399;52.530;13.304;2024-03-23T10:38:40;5.20;99.90
6724;DHT22;3399;52.530;13.304;2024-03-23T10:41:10;5.20;99.90
6724;DHT22;3399;52.530;13.304;2024-03-23T10:43:37;5.20;99.90
6724;DHT22;3399;52.530;13.304;2024-03-23T10:46:03;5.30;99.90
6724;DHT22;3399;52.530;13.304;2024-03-23T10:48:29;5.40;99.90
6724;DHT22;3399;52.530;13.304;2024-03-23T10:50:55;5.70;99.90
6724;DHT22;3399;52.530;13.304;2024-03-23T10:53:22;6.10;99.90
6724;DHT22;3399;52.530;13.304;2024-03-23T10:55:50;6.20;99.90
6724;DHT22;3399;52.530;13.304;2024-03-23T10:58:18;6.30;99.90
6724;DHT22;3399;52.530;13.304;2024-03-23T11:00:44;6.40;99.90
6724;DHT22;3399;52.530;13.304;2024-03-23T11:03:37;6.50;99.90
6724;DHT22;3399;52.530;13.304;2024-03-23T11:06:04;6.50;99.90
6724;DHT22;3399;52.530;13.304;2024-03-23T11:08:34;6.30;99.90
6724;DHT22;3399;52.530;13.304;2024-03-23T11:11:22;6.50;99.90
6724;DHT22;3399;52.530;13.304;2024-03-23T11:13:51;6.70;99.90
6724;DHT22;3399;52.530;13.304;2024-03-23T11:16:24;6.70;99.90
6724;DHT22;3399;52.530;13.304;2024-03-23T11:18:51;6.60;99.90
6724;DHT22;3399;52.530;13.304;2024-03-23T11:21:54;6.40;99.90
6724;DHT22;3399;52.530;13.304;2024-03-23T11:24:20;6.60;99.90
6724;DHT22;3399;52.530;13.304;2024-03-23T11:26:46;6.60;99.90
6724;DHT22;3399;52.530;13.304;2024-03-23T11:29:13;6.80;99.90
6724;DHT22;3399;52.530;13.304;2024-03-23T11:31:46;6.50;99.90
6724;DHT22;3399;52.530;13.304;2024-03-23T11:34:11;6.30;99.90
6724;DHT22;3399;52.530;13.304;2024-03-23T11:36:37;6.40;99.90
6724;DHT22;3399;52.530;13.304;2024-03-23T11:39:19;6.80;99.90
6724;DHT22;3399;52.530;13.304;2024-03-23T11:41:52;7.10;99.90
6724;DHT22;3399;52.530;13.304;2024-03-23T11:44:19;7.10;99.90
6724;DHT22;3399;52.530;13.304;2024-03-23T11:46:46;7.30;99.90
6724;DHT22;3399;52.530;13.304;2024-03-23T11:49:28;7.50;99.90
6724;DHT22;3399;52.530;13.304;2024-03-23T11:51:54;7.20;99.90
6724;DHT22;3399;52.530;13.304;2024-03-23T11:54:24;7.40;99.90
6724;DHT22;3399;52.530;13.304;2024-03-23T11:57:00;7.40;99.90
6724;DHT22;3399;52.530;13.304;2024-03-23T11:59:36;7.30;99.90
6724;DHT22;3399;52.530;13.304;2024-03-23T12:02:06;7.20;99.90
6724;DHT22;3399;52.530;13.304;2024-03-23T12:04:32;7.10;99.90
6724;DHT22;3399;52.530;13.304;2024-03-23T12:07:18;7.30;99.90
6724;DHT22;3399;52.530;13.304;2024-03-23T12:09:44;7.10;99.90
6724;DHT22;3399;52.530;13.304;2024-03-23T12:12:18;6.90;99.90
6724;DHT22;3399;52.530;13.304;2024-03-23T12:14:45;6.90;99.90
6724;DHT22;3399;52.530;13.304;2024-03-23T12:17:14;6.80;99.90
6724;DHT22;3399;52.530;13.304;2024-03-23T12:19:41;6.80;99.90
6724;DHT22;3399;52.530;13.304;2024-03-23T12:22:08;6.90;99.90
6724;DHT22;3399;52.530;13.304;2024-03-23T12:24:34;6.70;99.90
6724;DHT22;3399;52.530;13.304;2024-03-23T12:27:03;6.90;99.90
6724;DHT22;3399;52.530;13.304;2024-03-23T12:29:32;6.90;99.90
6724;DHT22;3399;52.530;13.304;2024-03-23T12:32:02;6.90;99.90
6724;DHT22;3399;52.530;13.304;2024-03-23T12:34:28;7.20;99.90
6724;DHT22;3399;52.530;13.304;2024-03-23T12:36:54;7.20;99.90
6724;DHT22;3399;52.530;13.304;2024-03-23T12:39:19;7.30;99.90
6724;DHT22;3399;52.530;13.304;2024-03-23T12:41:48;7.20;99.90
6724;DHT22;3399;52.530;13.304;2024-03-23T12:44:14;6.80;99.90
6724;DHT22;3399;52.530;13.304;2024-03-23T12:46:41;6.80;99.90
6724;DHT22;3399;52.530;13.304;2024-03-23T12:49:06;6.70;99.90
6724;DHT22;3399;52.530;13.304;2024-03-23T12:51:32;6.90;99.90
6724;DHT22;3399;52.530;13.304;2024-03-23T12:53:58;7.00;99.90
6724;DHT22;3399;52.530;13.304;2024-03-23T12:56:24;7.10;99.90
6724;DHT22;3399;52.530;13.304;2024-03-23T12:58:49;7.50;99.90
6724;DHT22;3399;52.530;13.304;2024-03-23T13:01:17;8.00;99.90
6724;DHT22;3399;52.530;13.304;2024-03-23T13:03:43;8.10;99.90
6724;DHT22;3399;52.530;13.304;2024-03-23T13:06:10;8.30;99.90
6724;DHT22;3399;52.530;13.304;2024-03-23T13:08:36;8.10;99.90
6724;DHT22;3399;52.530;13.304;2024-03-23T13:11:01;8.20;99.90
6724;DHT22;3399;52.530;13.304;2024-03-23T13:13:27;8.60;99.90
6724;DHT22;3399;52.530;13.304;2024-03-23T13:15:52;8.30;99.90
6724;DHT22;3399;52.530;13.304;2024-03-23T13:18:18;8.70;99.90
6724;DHT22;3399;52.530;13.304;2024-03-23T13:20:44;8.90;99.90
6724;DHT22;3399;52.530;13.304;2024-03-23T13:23:09;9.30;99.90
6724;DHT22;3399;52.530;13.304;2024-03-23T13:25:35;9.50;99.90
6724;DHT22;3399;52.530;13.304;2024-03-23T13:28:01;9.80;99.90
6724;DHT22;3399;52.530;13.304;2024-03-23T13:30:27;10.50;99.90
6724;DHT22;3399;52.530;13.304;2024-03-23T13:32:52;11.60;99.90
6724;DHT22;3399;52.530;13.304;2024-03-23T13:35:18;11.20;99.90
6724;DHT22;3399;52.530;13.304;2024-03-23T13:37:44;10.80;99.90
6724;DHT22;3399;52.530;13.304;2024-03-23T13:40:10;12.00;99.90
6724;DHT22;3399;52.530;13.304;2024-03-23T13:42:36;10.70;99.90
6724;DHT22;3399;52.530;13.304;2024-03-23T13:45:02;11.40;99.90
6724;DHT22;3399;52.530;13.304;2024-03-23T13:47:28;11.90;99.90
6724;DHT22;3399;52.530;13.304;2024-03-23T13:49:53;11.70;99.90
6724;DHT22;3399;52.530;13.304;2024-03-23T13:52:18;11.80;99.90
6724;DHT22;3399;52.530;13.304;2024-03-23T13:54:48;12.50;99.90
6724;DHT22;3399;52.530;13.304;2024-03-23T13:57:14;12.30;99.90
6724;DHT22;3399;52.530;13.304;2024-03-23T13:59:39;11.80;99.90
6724;DHT22;3399;52.530;13.304;2024-03-23T14:02:05;11.40;99.90
6724;DHT22;3399;52.530;13.304;2024-03-23T14:04:30;11.20;99.90
6724;DHT22;3399;52.530;13.304;2024-03-23T14:06:56;10.60;99.90
6724;DHT22;3399;52.530;13.304;2024-03-23T14:09:21;10.30;99.90
6724;DHT22;3399;52.530;13.304;2024-03-23T14:11:51;10.00;99.90
6724;DHT22;3399;52.530;13.304;2024-03-23T14:14:16;9.90;99.90
6724;DHT22;3399;52.530;13.304;2024-03-23T14:16:42;9.70;99.90
6724;DHT22;3399;52.530;13.304;2024-03-23T14:19:08;9.60;99.90
6724;DHT22;3399;52.530;13.304;2024-03-23T14:21:34;9.50;99.90
6724;DHT22;3399;52.530;13.304;2024-03-23T14:24:03;9.40;99.90
6724;DHT22;3399;52.530;13.304;2024-03-23T14:26:29;9.10;99.90
6724;DHT22;3399;52.530;13.304;2024-03-23T14:28:54;9.00;99.90
6724;DHT22;3399;52.530;13.304;2024-03-23T14:31:20;8.90;99.90
6724;DHT22;3399;52.530;13.304;2024-03-23T14:33:45;8.90;99.90
6724;DHT22;3399;52.530;13.304;2024-03-23T14:36:16;9.00;99.90
6724;DHT22;3399;52.530;13.304;2024-03-23T14:38:46;9.00;99.90
6724;DHT22;3399;52.530;13.304;2024-03-23T14:41:12;8.80;99.90
6724;DHT22;3399;52.530;13.304;2024-03-23T14:43:37;8.60;99.90
6724;DHT22;3399;52.530;13.304;2024-03-23T14:48:35;7.70;99.90
6724;DHT22;3399;52.530;13.304;2024-03-23T14:51:01;7.00;99.90
6724;DHT22;3399;52.530;13.304;2024-03-23T14:53:27;5.90;99.90
6724;DHT22;3399;52.530;13.304;2024-03-23T14:55:56;5.90;99.90
6724;DHT22;3399;52.530;13.304;2024-03-23T14:58:21;6.10;99.90
6724;DHT22;3399;52.530;13.304;2024-03-23T15:00:48;6.10;99.90
6724;DHT22;3399;52.530;13.304;2024-03-23T15:03:14;6.40;99.90
6724;DHT22;3399;52.530;13.304;2024-03-23T15:05:39;6.50;99.90
6724;DHT22;3399;52.530;13.304;2024-03-23T15:08:05;6.80;99.90
6724;DHT22;3399;52.530;13.304;2024-03-23T15:10:33;7.50;99.90
6724;DHT22;3399;52.530;13.304;2024-03-23T15:12:58;7.80;99.90
6724;DHT22;3399;52.530;13.304;2024-03-23T15:15:24;8.00;99.90
6724;DHT22;3399;52.530;13.304;2024-03-23T15:17:49;7.80;99.90
6724;DHT22;3399;52.530;13.304;2024-03-23T15:20:15;7.70;99.90
6724;DHT22;3399;52.530;13.304;2024-03-23T15:22:41;7.80;99.90
6724;DHT22;3399;52.530;13.304;2024-03-23T15:25:07;8.10;99.90
6724;DHT22;3399;52.530;13.304;2024-03-23T15:27:33;8.10;99.90
6724;DHT22;3399;52.530;13.304;2024-03-23T15:29:59;7.90;99.90
6724;DHT22;3399;52.530;13.304;2024-03-23T15:32:24;8.40;99.90
6724;DHT22;3399;52.530;13.304;2024-03-23T15:34:50;9.00;99.90
6724;DHT22;3399;52.530;13.304;2024-03-23T15:37:15;8.90;99.90
6724;DHT22;3399;52.530;13.304;2024-03-23T15:39:41;8.60;99.90
6724;DHT22;3399;52.530;13.304;2024-03-23T15:42:07;8.40;99.90
6724;DHT22;3399;52.530;13.304;2024-03-23T15:44:32;8.20;99.90
6724;DHT22;3399;52.530;13.304;2024-03-23T15:46:58;8.20;99.90
6724;DHT22;3399;52.530;13.304;2024-03-23T15:49:24;8.20;99.90
6724;DHT22;3399;52.530;13.304;2024-03-23T15:51:49;8.30;99.90
6724;DHT22;3399;52.530;13.304;2024-03-23T15:54:15;8.30;99.90
6724;DHT22;3399;52.530;13.304;2024-03-23T15:56:40;7.90;99.90
6724;DHT22;3399;52.530;13.304;2024-03-23T15:59:06;8.00;99.90
6724;DHT22;3399;52.530;13.304;2024-03-23T16:01:32;8.00;99.90
6724;DHT22;3399;52.530;13.304;2024-03-23T16:04:01;7.90;99.90
6724;DHT22;3399;52.530;13.304;2024-03-23T16:06:27;8.00;99.90
6724;DHT22;3399;52.530;13.304;2024-03-23T16:08:53;8.00;99.90
6724;DHT22;3399;52.530;13.304;2024-03-23T16:11:18;8.10;99.90
6724;DHT22;3399;52.530;13.304;2024-03-23T16:13:44;8.10;99.90
6724;DHT22;3399;52.530;13.304;2024-03-23T16:16:09;7.90;99.90
6724;DHT22;3399;52.530;13.304;2024-03-23T16:18:36;7.90;99.90
6724;DHT22;3399;52.530;13.304;2024-03-23T16:21:03;7.70;99.90
6724;DHT22;3399;52.530;13.304;2024-03-23T16:23:31;7.60;99.90
6724;DHT22;3399;52.530;13.304;2024-03-23T16:25:57;7.70;99.90
6724;DHT22;3399;52.530;13.304;2024-03-23T16:28:33;7.80;99.90
6724;DHT22;3399;52.530;13.304;2024-03-23T16:31:04;7.60;99.90
6724;DHT22;3399;52.530;13.304;2024-03-23T16:33:30;7.70;99.90
6724;DHT22;3399;52.530;13.304;2024-03-23T16:36:03;7.70;99.90
6724;DHT22;3399;52.530;13.304;2024-03-23T16:38:30;7.70;99.90
6724;DHT22;3399;52.530;13.304;2024-03-23T16:40:59;7.60;99.90
6724;DHT22;3399;52.530;13.304;2024-03-23T16:43:25;7.60;99.90
6724;DHT22;3399;52.530;13.304;2024-03-23T16:46:08;7.60;99.90
6724;DHT22;3399;52.530;13.304;2024-03-23T16:48:41;7.60;99.90
6724;DHT22;3399;52.530;13.304;2024-03-23T16:51:07;7.50;99.90
6724;DHT22;3399;52.530;13.304;2024-03-23T16:53:33;7.40;99.90
6724;DHT22;3399;52.530;13.304;2024-03-23T16:56:04;7.50;99.90